Airfield :
LOGIN :

Register | Disclaimer

   EN    FR    IT 

 










Legend :    VFR   Marginal VFR   IFR   Intensive IFR   Very Intensive IFR
Visi :
Ceiling :
>= 8 km
>= 3000ft
5 to 8 km
1000 to 3000 ft
1500m to 5 km
500 to 1000 ft
800 to 1500m
200 to 500 ft
< 800m
< 200 ft
Symbols :   Thunderstorms  Fog  Heavy snow  Heavy precipitations  Wind > 20 kt
SIGMETs :     Misc.  Thunderstorms  Icing  Turbulence  Mountain Waves  Volcanic Ashes







- Airport Elevation : 17 ft
- IATA code : KLR


ESMQ - Kalmar

CURRENT METAR :
  • 201450Z 07007KT 9999 SCT015 BKN023 OVC040 04/02 Q1029

EXPIRED METARs :
  • 201420Z 05008KT 9999 FEW016 SCT022 BKN026 04/02 Q1029
  • 201350Z 06006KT 9999 FEW013 BKN018 04/03 Q1029
  • 201320Z 06010KT 9999 FEW016 SCT021 OVC025 04/02 Q1029
  • 201250Z 07010KT 9999 BKN017 BKN043 04/02 Q1029
  • 201220Z 06009KT 9999 FEW017 SCT027 BKN042 05/02 Q1029

TAF TAF ESMQ
Valid from the 20 at 15:00 until the 20 at 23:00 UTC


201430Z 2015/2023 07008KT 9999 SCT015 BKN030
No reported NOTAMs for that airfield.



MET'MAP, your aeronautical weather chart ! - Copyright ORBIFLY December 2007 - Disclaimer

ORBIFLY MET'MAP TEAM :

Programming & Development : Alexandra Zaïnal
Concept & Development : Baudouin d'Aumeries
Co-Development & Prog : Marc-Olivier Méhu
Technical & hardware support : Manuel Goepfert

Contact : metmap@orbifly.com




SOURCES & CREDITS :

   NOAA